Time;durP1;ratioP1;P1;durP2;ratioP2;P2;SDS_P1;SDS_P2;PMS_P1;PMS_P2;Temp;Humidity;BMP_temperature;BMP_pressure;BME280_temperature;BME280_humidity;BME280_pressure;Samples;Min_cycle;Max_cycle;Signal;HPM_P1;HPM_P2
2023/07/14 00:00:25;;;;;;;18.10;8.63;;;;;;;24.13;75.78;94755.72;5035637;28;20167;-84
2023/07/14 00:02:53;;;;;;;20.63;8.98;;;;;;;24.24;76.09;94776.75;5035034;28;20622;-84
2023/07/14 00:05:21;;;;;;;18.13;8.98;;;;;;;24.16;76.12;94761.28;5052093;28;20179;-84
2023/07/14 00:07:49;;;;;;;22.75;8.52;;;;;;;24.21;76.17;94772.00;5053546;28;20203;-83
2023/07/14 00:10:18;;;;;;;25.75;9.32;;;;;;;24.31;76.83;94793.31;5052241;28;20704;-84
2023/07/14 00:12:44;;;;;;;22.58;8.32;;;;;;;24.14;76.43;94770.72;5053479;28;20183;-83
2023/07/14 00:15:10;;;;;;;19.50;9.68;;;;;;;23.96;76.82;94754.38;5035528;28;20179;-84
2023/07/14 00:17:36;;;;;;;19.38;8.10;;;;;;;24.17;77.19;94776.31;5053423;28;20171;-83
2023/07/14 00:20:16;;;;;;;15.15;7.80;;;;;;;23.99;77.46;94764.56;5053341;28;20186;-84
2023/07/14 00:22:41;;;;;;;19.52;8.45;;;;;;;23.91;77.62;94751.00;5052297;28;20167;-83
2023/07/14 00:25:11;;;;;;;20.30;10.60;;;;;;;23.84;77.92;94764.03;5035368;28;20249;-84
2023/07/14 00:27:37;;;;;;;16.58;8.82;;;;;;;23.86;77.98;94778.00;5051975;28;20195;-85
2023/07/14 00:30:02;;;;;;;18.38;9.23;;;;;;;23.52;77.93;94719.97;5053264;28;20309;-84
2023/07/14 00:32:28;;;;;;;19.90;12.07;;;;;;;23.84;78.53;94769.41;5051404;28;20253;-81
2023/07/14 00:34:53;;;;;;;36.58;18.38;;;;;;;23.89;78.58;94769.31;5052256;28;20187;-82
2023/07/14 00:37:19;;;;;;;16.55;9.63;;;;;;;23.94;77.94;94783.47;5053208;28;20258;-83
2023/07/14 00:39:44;;;;;;;24.42;13.32;;;;;;;23.94;78.24;94788.06;5052716;28;20787;-83
2023/07/14 00:42:14;;;;;;;24.00;14.18;;;;;;;23.84;78.27;94780.97;5052711;28;20254;-82
2023/07/14 00:44:39;;;;;;;21.65;13.05;;;;;;;23.91;77.53;94804.78;5052786;28;20258;-83
2023/07/14 00:47:18;;;;;;;39.60;24.95;;;;;;;23.91;78.23;94815.53;5052834;28;20281;-82
2023/07/14 00:49:43;;;;;;;28.80;17.42;;;;;;;23.90;77.19;94814.75;5052346;28;20642;-83
2023/07/14 00:52:19;;;;;;;27.95;13.85;;;;;;;23.96;77.17;94823.50;5052712;28;20182;-82
2023/07/14 00:54:51;;;;;;;20.95;12.20;;;;;;;23.92;76.77;94812.56;5051418;28;20634;-83
2023/07/14 00:57:19;;;;;;;15.85;8.93;;;;;;;23.92;76.42;94822.50;5052514;28;20561;-82
2023/07/14 00:59:44;;;;;;;16.17;8.50;;;;;;;23.72;76.68;94826.34;5052379;28;20171;-83
2023/07/14 01:02:10;;;;;;;22.17;9.75;;;;;;;23.80;77.00;94857.13;5052259;28;20531;-82
2023/07/14 01:04:36;;;;;;;18.30;9.27;;;;;;;23.74;77.78;94851.03;5034630;28;20189;-83
2023/07/14 01:07:04;;;;;;;23.38;9.45;;;;;;;23.62;77.51;94838.03;5052082;28;20187;-83
2023/07/14 01:09:31;;;;;;;15.32;8.57;;;;;;;23.54;78.06;94838.69;5052250;28;20171;-83
2023/07/14 01:11:58;;;;;;;14.23;7.55;;;;;;;23.49;78.07;94843.38;5034165;28;20646;-82
2023/07/14 01:14:31;;;;;;;17.65;9.70;;;;;;;23.64;78.16;94864.63;5052105;28;20171;-82
2023/07/14 01:16:57;;;;;;;14.25;8.50;;;;;;;23.75;77.88;94871.47;5051967;28;20175;-82
2023/07/14 01:19:40;;;;;;;14.73;8.57;;;;;;;23.76;77.34;94858.81;5052126;28;20874;-82
2023/07/14 01:22:50;;;;;;;10.02;6.82;;;;;;;23.70;77.09;94852.69;5051918;28;20562;-82
2023/07/14 01:25:40;;;;;;;14.57;6.15;;;;;;;23.57;76.80;94842.72;5007372;28;20273;-82
2023/07/14 01:28:11;;;;;;;13.27;7.20;;;;;;;23.16;78.36;94823.69;5050529;28;20509;-82
2023/07/14 01:30:38;;;;;;;10.73;7.50;;;;;;;23.32;79.08;94830.41;5048530;28;20189;-82
2023/07/14 01:33:06;;;;;;;24.40;8.20;;;;;;;23.43;78.42;94831.88;5049721;28;20262;-82
2023/07/14 01:35:35;;;;;;;11.00;6.20;;;;;;;23.31;78.44;94797.38;5048800;28;20298;-82
2023/07/14 01:38:01;;;;;;;11.13;5.85;;;;;;;23.13;78.14;94773.22;5049709;28;20232;-82
2023/07/14 01:40:29;;;;;;;13.55;6.22;;;;;;;23.41;78.27;94817.13;5048286;28;20222;-82
2023/07/14 01:43:00;;;;;;;10.25;5.60;;;;;;;23.19;78.29;94788.16;5049938;28;20182;-82
2023/07/14 01:45:30;;;;;;;13.55;7.30;;;;;;;23.28;79.25;94794.47;5050183;28;20487;-82
2023/07/14 01:47:59;;;;;;;11.38;6.57;;;;;;;23.32;79.04;94798.19;5050210;28;20203;-81
2023/07/14 01:50:36;;;;;;;13.63;6.63;;;;;;;23.41;78.45;94809.88;5051329;28;20179;-81
2023/07/14 01:53:10;;;;;;;10.40;5.97;;;;;;;23.29;77.94;94801.44;5050130;28;20205;-81
2023/07/14 01:55:38;;;;;;;9.95;6.47;;;;;;;23.25;77.21;94787.00;5050884;28;20663;-81
2023/07/14 01:58:13;;;;;;;12.35;6.47;;;;;;;23.44;76.85;94825.38;5051405;28;20194;-81
2023/07/14 02:00:41;;;;;;;14.77;8.35;;;;;;;23.49;77.10;94841.47;5051265;28;20166;-81
2023/07/14 02:03:09;;;;;;;14.02;7.25;;;;;;;23.53;77.14;94852.44;5051358;28;20666;-81
2023/07/14 02:05:37;;;;;;;16.98;8.50;;;;;;;23.31;77.06;94813.50;5051298;28;20246;-81
2023/07/14 02:08:05;;;;;;;23.85;10.85;;;;;;;23.56;77.09;94859.91;5033333;28;20191;-81
2023/07/14 02:10:32;;;;;;;23.67;8.75;;;;;;;23.56;77.39;94862.63;5050102;28;20182;-81
2023/07/14 02:12:59;;;;;;;14.65;8.75;;;;;;;23.45;76.79;94851.19;5051171;28;20179;-81
2023/07/14 02:15:31;;;;;;;19.85;9.55;;;;;;;23.42;76.35;94857.16;5050297;28;20426;-81
2023/07/14 02:17:58;;;;;;;16.23;8.33;;;;;;;23.35;76.75;94877.41;5050082;28;20426;-81
2023/07/14 02:20:37;;;;;;;12.38;8.20;;;;;;;23.01;76.59;94824.66;5051192;28;20175;-81
2023/07/14 02:23:04;;;;;;;16.88;8.63;;;;;;;23.31;76.00;94882.56;5049769;28;20170;-81
2023/07/14 02:25:37;;;;;;;16.45;8.88;;;;;;;23.38;76.25;94901.00;5050849;28;20498;-81
2023/07/14 02:28:03;;;;;;;12.77;7.53;;;;;;;23.32;76.17;94894.91;5050237;28;20191;-81
2023/07/14 02:30:32;;;;;;;26.35;8.70;;;;;;;23.34;75.57;94900.81;5050753;28;20612;-81
2023/07/14 02:33:17;;;;;;;16.00;8.00;;;;;;;23.21;75.90;94904.97;5050912;28;20465;-81
2023/07/14 02:35:53;;;;;;;13.80;8.85;;;;;;;23.19;76.78;94914.41;5048783;28;20927;-81
2023/07/14 02:38:18;;;;;;;15.10;9.13;;;;;;;23.15;77.14;94924.16;5032273;28;20937;-81
2023/07/14 02:41:02;;;;;;;14.70;8.48;;;;;;;23.00;77.38;94925.13;5050015;28;20427;-81
2023/07/14 02:43:28;;;;;;;15.18;8.82;;;;;;;22.49;78.14;94881.91;5031794;28;20961;-81
2023/07/14 02:46:15;;;;;;;11.27;7.70;;;;;;;22.88;78.08;94930.09;5051117;28;20241;-81
2023/07/14 02:48:43;;;;;;;13.25;7.40;;;;;;;22.81;77.69;94916.22;5049019;28;20432;-81
2023/07/14 02:51:10;;;;;;;15.07;6.47;;;;;;;22.99;76.84;94933.47;5050597;28;20412;-82
2023/07/14 02:53:35;;;;;;;15.35;6.72;;;;;;;22.81;77.17;94913.53;5048569;28;20919;-81
2023/07/14 02:56:02;;;;;;;17.30;6.90;;;;;;;22.52;77.52;94889.38;5048233;28;20422;-81
2023/07/14 02:58:28;;;;;;;12.02;6.82;;;;;;;22.71;77.83;94919.00;5050330;28;20415;-81
2023/07/14 03:00:53;;;;;;;11.32;6.32;;;;;;;23.01;77.14;94915.97;5052852;28;20183;-81
2023/07/14 03:03:19;;;;;;;10.23;5.68;;;;;;;23.17;76.34;94932.72;5054722;28;20678;-82
2023/07/14 03:05:45;;;;;;;8.40;5.97;;;;;;;23.18;76.25;94920.88;5053421;28;20415;-82
2023/07/14 03:08:16;;;;;;;12.50;6.40;;;;;;;23.43;75.52;94941.25;5054246;28;20195;-82
2023/07/14 03:10:46;;;;;;;14.25;6.47;;;;;;;23.43;75.05;94939.38;5054378;28;20411;-86
2023/07/14 03:13:14;;;;;;;13.18;5.70;;;;;;;23.49;74.88;94932.06;5054430;28;20240;-85
2023/07/14 03:15:39;;;;;;;15.13;6.28;;;;;;;23.37;74.80;94892.13;5051678;28;20190;-85
2023/07/14 03:18:04;;;;;;;15.55;7.28;;;;;;;23.66;74.71;94924.28;5054547;28;20164;-84
2023/07/14 03:20:30;;;;;;;12.35;7.25;;;;;;;23.79;75.19;94947.75;5036241;28;20175;-84
2023/07/14 03:22:56;;;;;;;21.55;6.10;;;;;;;23.77;73.77;94938.41;5054076;28;20183;-81
2023/07/14 03:25:21;;;;;;;17.87;6.20;;;;;;;23.69;72.42;94943.34;5053924;28;20423;-82
2023/07/14 03:27:47;;;;;;;15.13;6.73;;;;;;;23.81;69.59;94966.28;5053417;28;20431;-81
2023/07/14 03:30:13;;;;;;;11.70;5.95;;;;;;;23.79;67.05;94934.31;5053487;28;20952;-82
2023/07/14 03:32:39;;;;;;;16.27;7.00;;;;;;;23.93;62.93;94942.44;5053828;28;20447;-81
2023/07/14 03:35:05;;;;;;;17.10;6.07;;;;;;;24.34;63.52;94964.97;5054284;28;20190;-77
2023/07/14 03:37:31;;;;;;;11.05;5.60;;;;;;;24.49;60.59;94966.59;5035936;28;20845;-78
2023/07/14 03:39:56;;;;;;;12.38;6.57;;;;;;;24.64;59.19;94970.94;5054009;28;20227;-77
2023/07/14 03:42:22;;;;;;;14.63;5.78;;;;;;;24.81;58.81;94968.47;5054155;28;20171;-77
2023/07/14 03:44:47;;;;;;;10.68;5.63;;;;;;;24.88;57.84;94963.47;5035575;28;20240;-77
2023/07/14 03:47:13;;;;;;;13.27;5.57;;;;;;;24.98;57.73;94957.13;5053870;28;20195;-78
2023/07/14 03:49:38;;;;;;;15.32;5.30;;;;;;;24.99;58.07;94954.16;5053521;28;20179;-78
2023/07/14 03:52:04;;;;;;;19.02;6.05;;;;;;;25.19;56.51;94977.19;5053922;28;20167;-77
2023/07/14 03:54:30;;;;;;;8.07;6.00;;;;;;;25.30;55.43;94970.50;5053590;28;20642;-77
2023/07/14 03:56:58;;;;;;;9.73;5.53;;;;;;;25.40;55.51;94972.19;5053829;28;20647;-77
2023/07/14 03:59:23;;;;;;;14.77;7.97;;;;;;;25.46;56.58;94960.22;5055219;28;20197;-77
2023/07/14 04:01:48;;;;;;;12.25;6.10;;;;;;;25.80;55.87;95001.03;5035594;28;20167;-79
2023/07/14 04:04:14;;;;;;;12.40;5.97;;;;;;;25.93;54.85;94994.81;5053859;28;20631;-79
2023/07/14 04:06:40;;;;;;;12.32;5.55;;;;;;;26.15;54.35;95004.03;5053546;28;20167;-79
2023/07/14 04:09:06;;;;;;;26.13;13.25;;;;;;;26.14;55.64;94991.66;5052277;28;20214;-79
2023/07/14 04:11:35;;;;;;;13.25;8.57;;;;;;;26.41;55.86;95017.78;5035667;28;20175;-78
2023/07/14 04:14:02;;;;;;;14.75;8.32;;;;;;;26.51;55.51;95020.25;5053423;28;20182;-80
2023/07/14 04:16:27;;;;;;;17.25;6.43;;;;;;;26.67;54.90;95034.97;5053486;28;20237;-79
2023/07/14 04:18:52;;;;;;;15.85;7.15;;;;;;;26.61;55.15;95009.19;5053187;28;20159;-82
2023/07/14 04:21:24;;;;;;;13.98;5.82;;;;;;;26.52;55.58;95019.13;5053299;28;20186;-81
2023/07/14 04:23:49;;;;;;;16.02;6.68;;;;;;;26.45;55.46;95019.56;5053227;28;20238;-82
2023/07/14 04:26:15;;;;;;;22.80;7.55;;;;;;;26.65;57.23;95050.69;5053260;28;20198;-82
2023/07/14 04:28:40;;;;;;;23.80;6.70;;;;;;;26.76;57.94;95053.94;5052684;28;20214;-82
2023/07/14 04:31:06;;;;;;;12.18;6.68;;;;;;;26.84;56.24;95051.28;5053199;28;20261;-81
2023/07/14 04:33:31;;;;;;;15.70;6.00;;;;;;;26.78;56.68;95032.81;5035157;28;20622;-81
2023/07/14 04:35:58;;;;;;;18.02;8.18;;;;;;;27.02;58.35;95073.84;5053409;28;20179;-82
2023/07/14 04:38:24;;;;;;;13.63;6.85;;;;;;;27.12;57.64;95080.91;5052976;28;20171;-81
2023/07/14 04:40:50;;;;;;;10.80;6.35;;;;;;;27.07;56.70;95081.06;5052720;28;20721;-81
2023/07/14 04:43:17;;;;;;;10.43;6.47;;;;;;;27.11;58.61;95073.91;5052865;28;20179;-81
2023/07/14 04:45:45;;;;;;;17.08;6.28;;;;;;;27.31;56.47;95097.72;5052933;28;20654;-81
2023/07/14 04:48:17;;;;;;;15.85;6.68;;;;;;;27.37;58.36;95091.06;5052818;28;20210;-81
2023/07/14 04:50:47;;;;;;;16.63;7.20;;;;;;;27.59;58.80;95098.38;5051679;28;20216;-81
2023/07/14 04:53:15;;;;;;;14.75;6.63;;;;;;;27.57;57.86;95087.84;5052659;28;20168;-81
2023/07/14 04:55:42;;;;;;;13.60;6.82;;;;;;;27.79;56.58;95100.50;5052753;28;21097;-81
2023/07/14 04:58:09;;;;;;;14.52;6.57;;;;;;;27.91;55.80;95116.94;5052674;28;20227;-81
2023/07/14 05:00:36;;;;;;;13.13;6.18;;;;;;;27.86;56.06;95090.00;5052586;28;20255;-81
2023/07/14 05:03:02;;;;;;;11.27;6.70;;;;;;;28.10;55.70;95109.38;5052464;28;20226;-81
2023/07/14 05:05:27;;;;;;;10.10;6.45;;;;;;;28.21;55.27;95112.59;5052526;28;20672;-82
2023/07/14 05:07:55;;;;;;;20.75;7.43;;;;;;;28.22;55.07;95107.97;5052572;28;20195;-81
2023/07/14 05:10:22;;;;;;;15.02;6.82;;;;;;;28.36;58.02;95114.06;5052392;28;20171;-82
2023/07/14 05:12:56;;;;;;;14.05;6.43;;;;;;;28.35;58.65;95085.38;5052648;28;20173;-81
2023/07/14 05:15:23;;;;;;;14.43;7.32;;;;;;;28.75;59.74;95121.25;5051548;28;20178;-81
2023/07/14 05:17:49;;;;;;;19.00;7.13;;;;;;;28.79;54.14;95109.50;5052236;28;20238;-81
2023/07/14 05:20:17;;;;;;;18.40;7.13;;;;;;;28.80;55.90;95119.19;5051879;28;20175;-81
2023/07/14 05:22:46;;;;;;;12.25;6.28;;;;;;;28.95;56.36;95127.97;5033999;28;20179;-82
2023/07/14 05:25:12;;;;;;;11.70;6.93;;;;;;;29.05;52.93;95128.47;5052039;28;20163;-82
2023/07/14 05:27:39;;;;;;;11.60;6.60;;;;;;;29.22;54.94;95133.06;5051770;28;20191;-82
2023/07/14 05:30:06;;;;;;;13.27;6.45;;;;;;;29.27;54.55;95120.13;5051968;28;20647;-83
2023/07/14 05:32:32;;;;;;;13.43;6.15;;;;;;;29.53;56.47;95135.56;5033320;28;20193;-82
2023/07/14 05:34:58;;;;;;;12.38;6.18;;;;;;;29.48;53.78;95108.63;5051840;28;20183;-84
2023/07/14 05:37:24;;;;;;;14.05;7.80;;;;;;;29.66;54.53;95112.06;5051855;28;20182;-83
2023/07/14 05:39:50;;;;;;;14.55;6.38;;;;;;;29.69;52.62;95133.13;5054021;28;20214;-84
2023/07/14 05:42:15;;;;;;;15.43;9.15;;;;;;;29.82;55.83;95132.91;5051612;28;20544;-84
2023/07/14 05:47:16;;;;;;;11.45;5.85;;;;;;;30.02;53.40;95115.09;5696891;22;20773;-80
2023/07/14 05:49:41;;;;;;;11.20;5.32;;;;;;;30.15;53.79;95138.53;5002037;28;20176;-78
2023/07/14 05:52:10;;;;;;;10.55;5.50;;;;;;;30.24;53.93;95143.94;5004009;28;20561;-82
2023/07/14 05:54:36;;;;;;;10.38;5.65;;;;;;;30.23;53.37;95123.31;5003033;28;20188;-80
2023/07/14 05:57:01;;;;;;;9.98;6.00;;;;;;;30.34;53.63;95127.25;5003574;28;20161;-78
2023/07/14 05:59:27;;;;;;;17.25;5.60;;;;;;;30.32;54.00;95099.59;5001558;28;20196;-78
2023/07/14 06:01:52;;;;;;;18.42;5.72;;;;;;;30.67;54.80;95128.16;5002557;28;20177;-80
2023/07/14 06:04:18;;;;;;;10.27;5.30;;;;;;;30.81;53.69;95137.97;5003329;28;20318;-81
2023/07/14 06:06:44;;;;;;;13.30;5.50;;;;;;;30.76;53.75;95119.94;5002694;28;20172;-81
2023/07/14 06:09:13;;;;;;;11.27;5.88;;;;;;;30.89;53.26;95129.75;4985604;28;20186;-83
2023/07/14 06:11:39;;;;;;;11.13;6.43;;;;;;;31.03;53.67;95129.47;4991382;28;20201;-82
2023/07/14 06:14:04;;;;;;;11.50;5.63;;;;;;;31.03;54.50;95089.47;4999771;28;20209;-80
2023/07/14 06:16:30;;;;;;;10.98;6.28;;;;;;;31.45;51.30;95133.75;5000487;28;20176;-80
2023/07/14 06:18:55;;;;;;;11.30;6.13;;;;;;;31.20;51.51;95085.81;5003293;28;20168;-81
2023/07/14 06:21:21;;;;;;;15.43;5.85;;;;;;;31.39;51.43;95107.88;5001738;28;20632;-80
2023/07/14 06:23:46;;;;;;;11.07;5.57;;;;;;;31.34;50.32;95124.41;5000364;28;20201;-79
2023/07/14 06:26:12;;;;;;;13.90;6.68;;;;;;;31.40;50.20;95125.78;5003122;28;20165;-79
2023/07/14 06:28:38;;;;;;;15.68;6.68;;;;;;;31.45;48.95;95119.34;5002213;28;20254;-85
2023/07/14 06:31:06;;;;;;;13.45;6.97;;;;;;;31.59;50.77;95122.53;4985729;28;20662;-80
2023/07/14 06:33:33;;;;;;;10.52;5.93;;;;;;;31.77;51.55;95128.59;4983911;28;20164;-80
2023/07/14 06:35:59;;;;;;;17.58;6.30;;;;;;;31.85;49.96;95100.47;5004781;28;20176;-80
2023/07/14 06:38:25;;;;;;;13.50;6.80;;;;;;;32.00;50.03;95127.03;5001660;28;20584;-84
2023/07/14 06:41:03;;;;;;;15.10;6.80;;;;;;;31.81;50.16;95103.09;5001723;28;20220;-79
2023/07/14 06:43:30;;;;;;;15.38;6.70;;;;;;;31.81;49.21;95110.47;5000902;28;20180;-80
2023/07/14 06:45:55;;;;;;;13.43;6.22;;;;;;;31.95;49.65;95127.25;5002954;28;20173;-80
2023/07/14 06:48:21;;;;;;;15.98;7.00;;;;;;;31.73;50.38;95120.34;4990059;28;20727;-80
2023/07/14 06:50:46;;;;;;;14.82;6.65;;;;;;;31.61;50.22;95128.44;4998946;28;20211;-78
2023/07/14 06:53:12;;;;;;;10.88;6.50;;;;;;;31.52;49.46;95105.97;5002984;28;20245;-81
2023/07/14 06:55:39;;;;;;;13.55;7.18;;;;;;;31.71;48.92;95124.53;5002991;28;20191;-83
2023/07/14 06:58:05;;;;;;;17.77;7.30;;;;;;;31.72;50.69;95131.56;5001400;28;20256;-77
2023/07/14 07:00:31;;;;;;;12.73;6.93;;;;;;;31.71;51.91;95116.34;5002736;28;20262;-78
2023/07/14 07:02:58;;;;;;;12.65;6.47;;;;;;;32.03;50.18;95117.38;5002534;28;20821;-77
2023/07/14 07:05:24;;;;;;;9.32;6.93;;;;;;;32.13;49.39;95125.13;5002111;28;20179;-79
2023/07/14 07:07:49;;;;;;;14.70;6.57;;;;;;;32.15;49.25;95123.66;5000016;28;20200;-79
2023/07/14 07:10:16;;;;;;;18.88;6.75;;;;;;;32.04;50.32;95129.88;5004482;28;20199;-76
2023/07/14 07:12:41;;;;;;;15.32;6.80;;;;;;;32.26;49.10;95123.22;5001944;28;20203;-78
2023/07/14 07:15:07;;;;;;;12.52;5.90;;;;;;;32.36;49.07;95115.34;5001316;28;20732;-77
2023/07/14 07:17:32;;;;;;;9.07;6.47;;;;;;;32.64;49.27;95128.25;5003215;28;20176;-79
2023/07/14 07:19:58;;;;;;;10.02;6.10;;;;;;;32.88;49.72;95115.38;4983974;28;20263;-80
2023/07/14 07:22:23;;;;;;;18.70;6.70;;;;;;;33.28;46.14;95125.50;5001941;28;20249;-78
2023/07/14 07:24:49;;;;;;;13.77;7.05;;;;;;;33.25;46.48;95134.38;5002452;28;20311;-78
2023/07/14 07:27:14;;;;;;;10.93;6.35;;;;;;;32.97;47.12;95117.97;4998570;28;20676;-77
2023/07/14 07:29:42;;;;;;;16.13;6.75;;;;;;;33.01;47.52;95109.88;5000909;28;20176;-78
2023/07/14 07:32:08;;;;;;;17.88;7.15;;;;;;;33.22;47.92;95115.97;5001525;28;20652;-80
2023/07/14 07:34:33;;;;;;;12.90;5.80;;;;;;;33.04;48.12;95115.44;4990332;28;20175;-81
2023/07/14 07:36:58;;;;;;;14.40;6.10;;;;;;;33.28;48.71;95123.56;4999355;28;20554;-76
2023/07/14 07:39:24;;;;;;;14.27;6.55;;;;;;;33.15;49.73;95115.72;5002390;28;20199;-78
2023/07/14 07:41:50;;;;;;;9.75;6.03;;;;;;;32.98;46.19;95109.44;5000500;28;20256;-79
2023/07/14 07:44:15;;;;;;;12.38;6.53;;;;;;;33.22;48.87;95121.41;5002704;28;20635;-77
2023/07/14 07:46:41;;;;;;;12.73;6.22;;;;;;;33.43;46.59;95113.00;5003759;28;20218;-81
2023/07/14 07:49:06;;;;;;;11.70;6.05;;;;;;;33.34;45.13;95116.69;5004838;28;20217;-79
2023/07/14 07:51:32;;;;;;;10.73;6.60;;;;;;;33.24;48.54;95098.09;5004156;28;20184;-76
2023/07/14 07:53:57;;;;;;;15.70;5.65;;;;;;;33.05;46.33;95103.38;5002259;28;20260;-79
2023/07/14 07:56:22;;;;;;;9.82;5.90;;;;;;;33.07;46.97;95098.38;4987626;28;20187;-76
2023/07/14 07:58:49;;;;;;;9.32;5.93;;;;;;;33.47;45.54;95103.75;5006043;28;20235;-78
2023/07/14 08:01:23;;;;;;;18.58;6.40;;;;;;;33.50;45.92;95108.53;5005688;28;20226;-79
2023/07/14 08:03:50;;;;;;;10.55;5.60;;;;;;;33.68;48.96;95103.53;5007654;28;20230;-80
2023/07/14 08:06:17;;;;;;;10.98;6.28;;;;;;;33.74;44.31;95091.22;5005075;28;20626;-79
2023/07/14 08:08:42;;;;;;;11.88;5.90;;;;;;;33.85;46.22;95092.28;5004396;28;20679;-81
2023/07/14 08:11:10;;;;;;;12.60;6.13;;;;;;;34.19;45.95;95100.88;4988120;28;20165;-80
2023/07/14 08:13:35;;;;;;;17.55;6.20;;;;;;;34.15;44.12;95100.03;5003902;28;20656;-82
2023/07/14 08:16:01;;;;;;;12.15;5.78;;;;;;;34.25;44.50;95099.53;5006581;28;20208;-81
2023/07/14 08:18:26;;;;;;;9.55;6.00;;;;;;;34.24;44.34;95087.00;5003609;28;20239;-81
2023/07/14 08:20:53;;;;;;;9.60;5.63;;;;;;;33.67;43.61;95083.59;5002561;28;20184;-81
2023/07/14 08:23:20;;;;;;;15.65;5.88;;;;;;;33.13;45.52;95087.97;5004113;28;20169;-82
2023/07/14 08:26:12;;;;;;;10.10;6.45;;;;;;;33.02;49.44;95078.72;4995265;28;20177;-82
2023/07/14 08:28:38;;;;;;;7.38;5.18;;;;;;;33.17;46.58;95081.50;5000401;28;20204;-83
2023/07/14 08:31:07;;;;;;;12.70;6.22;;;;;;;33.00;45.42;95045.53;5000674;28;20246;-82
2023/07/14 08:33:33;;;;;;;7.00;5.32;;;;;;;33.32;45.46;95079.97;4983973;28;20548;-81
2023/07/14 08:36:00;;;;;;;10.23;5.63;;;;;;;33.33;47.10;95076.09;4985706;28;20618;-82
2023/07/14 08:38:27;;;;;;;11.07;6.15;;;;;;;33.32;45.81;95075.28;5002859;28;20169;-81
2023/07/14 08:40:56;;;;;;;8.95;5.80;;;;;;;33.50;46.32;95075.75;5003116;28;20173;-78
2023/07/14 08:43:52;;;;;;;13.77;5.70;;;;;;;33.36;45.74;95074.59;5003384;28;20768;-78
2023/07/14 08:46:29;;;;;;;11.25;7.20;;;;;;;33.38;48.43;95062.19;4992073;28;20246;-81
2023/07/14 08:49:11;;;;;;;11.18;6.43;;;;;;;33.90;45.99;95072.91;5002559;28;20248;-84
2023/07/14 08:51:46;;;;;;;10.77;5.85;;;;;;;34.37;46.57;95074.78;5001097;28;20227;-80
2023/07/14 08:54:19;;;;;;;11.95;6.75;;;;;;;34.68;45.42;95074.66;5001402;28;20173;-83
2023/07/14 08:56:45;;;;;;;10.45;6.50;;;;;;;34.38;43.69;95059.97;4983617;28;20608;-85
2023/07/14 08:59:20;;;;;;;9.15;5.82;;;;;;;33.48;45.26;95052.66;4982880;28;20162;-85
2023/07/14 09:01:53;;;;;;;11.93;8.18;;;;;;;33.51;44.47;95033.66;4999765;28;20169;-86
2023/07/14 09:04:31;;;;;;;10.98;6.00;;;;;;;33.56;46.17;95074.34;5003311;28;20176;-83
2023/07/14 09:06:57;;;;;;;11.70;6.15;;;;;;;33.52;45.18;95050.84;4992368;28;20671;-80
2023/07/14 09:09:34;;;;;;;10.80;5.68;;;;;;;33.71;47.39;95057.19;5004398;28;20186;-79
2023/07/14 09:12:34;;;;;;;13.40;6.60;;;;;;;33.91;45.98;95051.81;5001950;28;20177;-83
2023/07/14 09:15:03;;;;;;;17.30;7.13;;;;;;;34.07;45.98;95060.81;4951663;28;20204;-80
2023/07/14 09:18:13;;;;;;;17.02;7.70;;;;;;;34.22;43.86;95049.03;5002838;28;20182;-80
2023/07/14 09:20:46;;;;;;;12.05;6.75;;;;;;;34.19;45.22;95052.47;4956002;28;20686;-80
2023/07/14 09:23:47;;;;;;;16.88;6.85;;;;;;;34.35;44.61;95045.03;5000563;28;20267;-82
2023/07/14 09:26:16;;;;;;;14.52;6.63;;;;;;;34.51;44.29;95039.50;4963240;28;20290;-81
2023/07/14 09:28:48;;;;;;;9.93;7.05;;;;;;;34.39;44.93;95040.47;5001387;28;20229;-79
2023/07/14 09:31:39;;;;;;;12.10;6.53;;;;;;;34.53;44.67;95037.22;4984039;28;20212;-77
2023/07/14 09:34:30;;;;;;;13.32;7.10;;;;;;;34.69;43.84;95032.47;4990926;28;20245;-77
2023/07/14 09:36:56;;;;;;;13.68;6.35;;;;;;;34.69;41.51;95024.25;5003378;28;20188;-77
2023/07/14 09:39:33;;;;;;;14.35;6.10;;;;;;;34.55;42.38;95012.25;5002333;28;20180;-77
2023/07/14 09:42:02;;;;;;;12.27;6.65;;;;;;;34.65;45.12;95025.38;4985285;28;20191;-76
2023/07/14 09:44:29;;;;;;;17.52;7.07;;;;;;;34.73;44.34;95024.34;5001576;28;20188;-76
2023/07/14 09:46:55;;;;;;;13.75;6.60;;;;;;;34.78;44.58;95024.88;4992438;28;20313;-75
2023/07/14 09:49:30;;;;;;;11.77;6.30;;;;;;;34.77;46.52;95022.50;4998796;28;20189;-75
2023/07/14 09:52:20;;;;;;;17.17;6.93;;;;;;;34.53;43.78;95018.06;5002513;28;20222;-76
2023/07/14 09:54:57;;;;;;;13.65;6.30;;;;;;;34.42;45.73;95017.84;4998014;28;20623;-75
2023/07/14 09:57:25;;;;;;;10.48;5.80;;;;;;;34.46;46.91;95015.19;4999648;28;20178;-76
2023/07/14 09:59:58;;;;;;;12.98;6.72;;;;;;;34.43;44.38;95018.63;4997210;28;20559;-76
2023/07/14 10:02:27;;;;;;;13.63;6.03;;;;;;;34.51;46.46;95008.66;4995864;28;20185;-75
2023/07/14 10:04:58;;;;;;;8.88;6.85;;;;;;;34.43;45.67;94992.09;4998394;28;20208;-78
2023/07/14 10:07:26;;;;;;;9.05;5.50;;;;;;;34.60;43.85;95003.75;4999432;28;20259;-78
2023/07/14 10:10:07;;;;;;;9.80;5.88;;;;;;;34.15;43.02;95007.09;5004004;28;20715;-77
2023/07/14 10:12:49;;;;;;;13.80;6.38;;;;;;;34.09;44.70;95004.59;4988403;28;20559;-77
2023/07/14 10:15:32;;;;;;;8.82;5.60;;;;;;;33.99;44.55;94996.19;5000483;28;20173;-77
2023/07/14 10:18:15;;;;;;;11.65;6.30;;;;;;;33.81;41.46;94995.00;4997482;28;20636;-78
2023/07/14 10:20:43;;;;;;;12.38;6.43;;;;;;;33.32;42.11;94987.13;4986108;28;20206;-77
2023/07/14 10:23:15;;;;;;;12.98;7.05;;;;;;;33.08;43.55;94963.50;5000148;28;20260;-77
2023/07/14 10:25:40;;;;;;;13.82;6.30;;;;;;;33.25;43.46;94989.69;4998703;28;20181;-77
2023/07/14 10:28:19;;;;;;;15.52;6.85;;;;;;;33.36;44.90;94987.25;4998479;28;20189;-77
2023/07/14 10:31:09;;;;;;;12.30;5.95;;;;;;;33.46;46.56;94987.50;4999212;28;20259;-77
2023/07/14 10:33:47;;;;;;;10.63;6.68;;;;;;;33.14;42.32;94929.34;5008918;28;20648;-77
2023/07/14 10:36:27;;;;;;;13.10;5.80;;;;;;;33.38;43.37;94974.81;4997885;28;20199;-79
2023/07/14 10:38:57;;;;;;;12.65;5.82;;;;;;;33.24;44.05;94960.81;4997315;28;20179;-77
2023/07/14 10:41:24;;;;;;;40.50;7.18;;;;;;;33.34;46.58;94973.94;4996516;28;20817;-77
2023/07/14 10:43:59;;;;;;;11.57;6.05;;;;;;;33.41;46.55;94970.56;4993490;28;20542;-77
2023/07/14 10:46:31;;;;;;;11.40;5.88;;;;;;;33.48;45.00;94968.00;4997321;28;20179;-77
2023/07/14 10:49:05;;;;;;;13.18;6.85;;;;;;;33.44;46.41;94962.47;4997951;28;20221;-76
2023/07/14 10:51:44;;;;;;;14.52;6.55;;;;;;;33.38;46.43;94968.56;4994786;28;20715;-77
2023/07/14 10:54:14;;;;;;;11.60;6.07;;;;;;;33.34;44.65;94963.81;4991635;28;20644;-77
2023/07/14 10:56:45;;;;;;;9.40;5.82;;;;;;;33.33;42.19;94967.69;4996699;28;20173;-77
2023/07/14 10:59:32;;;;;;;10.68;5.93;;;;;;;33.07;43.87;94953.72;4990867;28;20168;-77
2023/07/14 11:02:01;;;;;;;12.10;6.88;;;;;;;33.17;46.62;94958.66;4992794;28;20224;-77
2023/07/14 11:04:36;;;;;;;12.82;6.32;;;;;;;33.19;45.66;94939.22;4990497;28;20177;-77
2023/07/14 11:07:04;;;;;;;12.75;6.47;;;;;;;33.36;45.88;94952.53;4980137;28;20227;-77
2023/07/14 11:09:30;;;;;;;19.50;6.78;;;;;;;33.43;46.11;94960.09;4999076;28;20248;-80
2023/07/14 11:12:11;;;;;;;17.35;5.93;;;;;;;33.55;44.89;94951.81;4993959;28;20167;-77
2023/07/14 11:15:05;;;;;;;10.95;5.50;;;;;;;33.61;45.65;94950.41;4993746;28;21296;-79
2023/07/14 11:17:47;;;;;;;20.67;6.88;;;;;;;33.53;45.43;94933.06;4980080;28;20168;-77
2023/07/14 11:20:24;;;;;;;10.60;6.20;;;;;;;33.60;44.73;94949.59;5001171;28;20175;-77
2023/07/14 11:23:28;;;;;;;12.95;6.38;;;;;;;33.69;43.31;94952.13;5001425;28;20179;-77
2023/07/14 11:26:28;;;;;;;11.82;5.82;;;;;;;33.60;42.06;94949.59;4965953;28;20616;-77
2023/07/14 11:29:10;;;;;;;10.23;5.72;;;;;;;33.22;41.16;94933.84;4986588;28;20556;-77
2023/07/14 11:31:53;;;;;;;13.88;5.97;;;;;;;33.07;41.64;94951.00;4990998;28;20166;-77
2023/07/14 11:34:21;;;;;;;11.15;5.72;;;;;;;33.03;46.33;94947.41;5000945;28;20264;-77
2023/07/14 11:37:12;;;;;;;12.25;5.97;;;;;;;33.13;44.88;94935.13;4996470;28;20553;-77
2023/07/14 11:39:37;;;;;;;12.30;6.57;;;;;;;33.28;44.34;94937.91;4998991;28;20181;-77
2023/07/14 11:42:03;;;;;;;11.48;5.88;;;;;;;33.36;45.19;94936.16;5001979;28;20177;-77